Time;durP1;ratioP1;P1;durP2;ratioP2;P2;SDS_P1;SDS_P2;PMS_P1;PMS_P2;Temp;Humidity;BMP_temperature;BMP_pressure;BME280_temperature;BME280_humidity;BME280_pressure;Samples;Min_cycle;Max_cycle;Signal;HPM_P1;HPM_P2
2024/04/05 00:00:07;;;;;;;4.13;1.63;;;15.80;99.90;;;;;;5081663;28;20600;-59
2024/04/05 00:02:34;;;;;;;3.27;1.10;;;15.80;99.90;;;;;;5079142;28;20570;-59
2024/04/05 00:05:00;;;;;;;4.43;2.03;;;15.80;99.90;;;;;;5081860;28;20262;-59
2024/04/05 00:07:26;;;;;;;4.50;2.20;;;15.80;99.90;;;;;;5086315;28;20609;-59
2024/04/05 00:09:52;;;;;;;7.43;5.60;;;15.80;99.90;;;;;;5085333;28;20650;-59
2024/04/05 00:12:20;;;;;;;5.78;3.83;;;15.80;99.90;;;;;;5083195;28;20197;-58
2024/04/05 00:14:49;;;;;;;6.07;2.13;;;15.80;99.90;;;;;;5082709;28;20262;-59
2024/04/05 00:17:16;;;;;;;2.97;1.37;;;15.80;99.90;;;;;;5074741;28;20204;-60
2024/04/05 00:19:42;;;;;;;1.77;1.10;;;15.80;99.90;;;;;;5082300;28;20712;-59
2024/04/05 00:22:09;;;;;;;2.73;1.40;;;15.80;99.90;;;;;;5085119;28;20213;-60
2024/04/05 00:24:35;;;;;;;2.77;1.17;;;15.80;99.90;;;;;;5085892;28;20672;-60
2024/04/05 00:27:01;;;;;;;2.47;1.05;;;15.60;99.90;;;;;;5084322;28;20204;-59
2024/04/05 00:29:28;;;;;;;2.95;1.00;;;15.50;99.90;;;;;;5082059;28;20221;-59
2024/04/05 00:31:55;;;;;;;2.47;1.23;;;15.60;99.90;;;;;;5083097;28;20252;-59
2024/04/05 00:34:21;;;;;;;3.07;0.97;;;15.60;99.90;;;;;;5086158;28;20261;-59
2024/04/05 00:36:47;;;;;;;1.80;1.00;;;15.50;99.90;;;;;;5085841;28;20578;-59
2024/04/05 00:39:13;;;;;;;3.55;1.73;;;15.60;99.90;;;;;;5082101;28;20204;-59
2024/04/05 00:41:40;;;;;;;3.33;1.27;;;15.60;99.90;;;;;;5082038;28;20224;-59
2024/04/05 00:44:05;;;;;;;5.33;1.60;;;15.70;99.90;;;;;;5084482;28;20208;-60
2024/04/05 00:46:34;;;;;;;2.80;1.08;;;15.70;99.90;;;;;;5085747;28;20200;-60
2024/04/05 00:49:00;;;;;;;4.72;1.40;;;15.70;99.90;;;;;;5083792;28;20205;-60
2024/04/05 00:51:27;;;;;;;3.40;1.25;;;15.60;99.90;;;;;;5082028;28;20725;-60
2024/04/05 00:53:53;;;;;;;3.10;1.50;;;15.60;99.90;;;;;;5081967;28;20212;-59
2024/04/05 00:56:22;;;;;;;4.27;1.40;;;15.60;99.90;;;;;;5085507;28;20581;-60
2024/04/05 00:58:48;;;;;;;3.90;1.23;;;15.60;99.90;;;;;;5085428;28;20201;-60
2024/04/05 01:01:16;;;;;;;4.27;1.40;;;15.50;99.90;;;;;;5081922;28;20213;-59
2024/04/05 01:03:43;;;;;;;2.53;0.97;;;15.50;99.90;;;;;;5081884;28;20208;-59
2024/04/05 01:06:10;;;;;;;2.42;1.10;;;15.50;99.90;;;;;;5084168;28;20215;-59
2024/04/05 01:08:37;;;;;;;5.70;1.40;;;15.40;99.90;;;;;;5085050;28;20204;-59
2024/04/05 01:11:04;;;;;;;5.27;1.47;;;15.40;99.90;;;;;;5083642;28;20224;-60
2024/04/05 01:13:30;;;;;;;2.97;1.17;;;15.40;99.90;;;;;;5081856;28;20240;-60
2024/04/05 01:15:57;;;;;;;5.17;1.63;;;15.40;99.90;;;;;;5081970;28;20228;-59
2024/04/05 01:18:24;;;;;;;3.23;1.27;;;15.30;99.90;;;;;;5084675;28;20677;-59
2024/04/05 01:20:54;;;;;;;3.17;1.10;;;15.40;99.90;;;;;;5084884;28;20658;-60
2024/04/05 01:23:23;;;;;;;4.70;1.40;;;15.30;99.90;;;;;;5085091;28;20583;-59
2024/04/05 01:25:53;;;;;;;5.13;1.53;;;15.30;99.90;;;;;;5084861;28;20676;-58
2024/04/05 01:28:18;;;;;;;5.33;1.30;;;15.30;99.90;;;;;;5084695;28;20241;-59
2024/04/05 01:30:45;;;;;;;4.00;1.80;;;15.30;99.90;;;;;;5084843;28;20224;-58
2024/04/05 01:33:11;;;;;;;2.97;1.27;;;15.30;99.90;;;;;;5082043;28;20246;-58
2024/04/05 01:35:39;;;;;;;2.53;1.30;;;15.40;99.90;;;;;;5081317;28;20201;-58
2024/04/05 01:38:05;;;;;;;3.40;1.50;;;15.30;99.90;;;;;;5082642;28;20215;-59
2024/04/05 01:40:31;;;;;;;4.47;1.30;;;15.30;99.90;;;;;;5084746;28;20216;-59
2024/04/05 01:42:59;;;;;;;3.57;1.30;;;15.30;99.90;;;;;;5083481;28;20587;-58
2024/04/05 01:45:25;;;;;;;3.03;1.10;;;15.30;99.90;;;;;;5081064;28;20197;-58
2024/04/05 01:47:51;;;;;;;3.20;1.00;;;15.40;99.90;;;;;;5080761;28;20204;-59
2024/04/05 01:50:18;;;;;;;5.25;1.45;;;15.40;99.90;;;;;;5083825;28;20227;-59
2024/04/05 01:52:45;;;;;;;4.07;1.40;;;15.50;99.90;;;;;;5084357;28;20207;-59
2024/04/05 01:55:11;;;;;;;2.23;0.90;;;15.50;99.90;;;;;;5081822;28;20248;-60
2024/04/05 01:57:37;;;;;;;2.88;1.25;;;15.40;99.90;;;;;;5080478;28;20204;-59
2024/04/05 02:00:08;;;;;;;4.18;1.55;;;15.40;99.90;;;;;;5081893;28;20252;-58
2024/04/05 02:02:34;;;;;;;2.87;1.30;;;15.50;99.90;;;;;;5084016;28;20204;-59
2024/04/05 02:05:00;;;;;;;5.27;1.70;;;15.40;99.90;;;;;;5082804;28;20200;-63
2024/04/05 02:07:27;;;;;;;6.07;2.13;;;15.50;99.90;;;;;;5080697;28;20224;-59
2024/04/05 02:09:54;;;;;;;3.17;1.30;;;15.50;99.90;;;;;;5080023;28;20581;-60
2024/04/05 02:12:20;;;;;;;4.10;1.80;;;15.50;99.90;;;;;;5072325;28;20606;-60
2024/04/05 02:14:47;;;;;;;5.70;2.10;;;15.50;99.90;;;;;;5080552;28;20583;-59
2024/04/05 02:17:14;;;;;;;3.87;1.30;;;15.50;99.90;;;;;;5083009;28;20580;-59
2024/04/05 02:19:41;;;;;;;7.07;3.17;;;15.60;99.90;;;;;;5083370;28;20693;-59
2024/04/05 02:22:08;;;;;;;3.43;1.00;;;15.60;99.90;;;;;;5081503;28;20619;-59
2024/04/05 02:24:35;;;;;;;2.83;1.13;;;15.60;99.90;;;;;;5080315;28;20256;-59
2024/04/05 02:27:01;;;;;;;3.87;1.77;;;15.60;99.90;;;;;;5080954;28;20213;-59
2024/04/05 02:29:27;;;;;;;3.83;1.30;;;15.60;99.90;;;;;;5083127;28;20324;-60
2024/04/05 02:31:53;;;;;;;3.40;1.50;;;15.60;99.90;;;;;;5084051;28;20204;-59
2024/04/05 02:34:21;;;;;;;1.85;1.20;;;15.60;99.90;;;;;;5071910;28;20200;-60
2024/04/05 02:36:49;;;;;;;3.97;1.50;;;15.60;99.90;;;;;;5080373;28;20205;-60
2024/04/05 02:39:16;;;;;;;3.70;1.30;;;15.60;99.90;;;;;;5083091;28;20417;-59
2024/04/05 02:41:44;;;;;;;4.17;1.40;;;15.60;99.90;;;;;;5083738;28;20231;-58
2024/04/05 02:44:11;;;;;;;4.77;1.20;;;15.60;99.90;;;;;;5081139;28;20283;-59
2024/04/05 02:46:36;;;;;;;3.55;1.23;;;15.70;99.90;;;;;;5079733;28;20675;-59
2024/04/05 02:49:03;;;;;;;4.37;1.63;;;15.80;99.90;;;;;;5080940;28;20231;-60
2024/04/05 02:51:30;;;;;;;3.20;1.60;;;15.70;99.90;;;;;;5083128;28;20231;-60
2024/04/05 02:53:57;;;;;;;2.70;1.80;;;15.70;99.90;;;;;;5083161;28;20199;-59
2024/04/05 02:56:22;;;;;;;2.33;1.50;;;15.60;99.90;;;;;;5080041;28;20325;-60
2024/04/05 02:58:49;;;;;;;3.97;1.30;;;15.60;99.90;;;;;;5079608;28;20686;-60
2024/04/05 03:01:15;;;;;;;3.37;1.80;;;15.60;99.90;;;;;;5082641;28;20229;-60
2024/04/05 03:03:41;;;;;;;4.60;1.30;;;15.50;99.90;;;;;;5083436;28;20637;-60
2024/04/05 03:06:07;;;;;;;3.43;1.80;;;15.50;99.90;;;;;;5081480;28;20204;-60
2024/04/05 03:08:36;;;;;;;4.57;2.30;;;15.50;99.90;;;;;;5079624;28;20204;-60
2024/04/05 03:11:01;;;;;;;2.57;1.60;;;15.40;99.90;;;;;;5080511;28;20280;-59
2024/04/05 03:13:29;;;;;;;4.43;2.07;;;15.40;99.90;;;;;;5083316;28;20201;-61
2024/04/05 03:15:54;;;;;;;7.50;4.33;;;15.50;99.90;;;;;;5083095;28;20224;-61
2024/04/05 03:18:21;;;;;;;5.77;3.37;;;15.40;99.90;;;;;;5071674;28;20593;-61
2024/04/05 03:20:47;;;;;;;2.75;1.08;;;15.50;99.90;;;;;;5079372;28;20248;-60
2024/04/05 03:23:14;;;;;;;3.47;1.20;;;15.50;99.90;;;;;;5081814;28;20235;-60
2024/04/05 03:25:41;;;;;;;2.33;1.20;;;15.60;99.90;;;;;;5083300;28;20688;-60
2024/04/05 03:28:07;;;;;;;2.57;1.33;;;15.60;99.90;;;;;;5081045;28;20219;-60
2024/04/05 03:30:35;;;;;;;3.73;1.80;;;15.70;99.90;;;;;;5079394;28;20225;-61
2024/04/05 03:33:01;;;;;;;4.03;1.57;;;15.80;99.90;;;;;;5080041;28;20670;-58
2024/04/05 03:35:27;;;;;;;3.17;1.50;;;15.80;99.90;;;;;;5082941;28;20202;-60
2024/04/05 03:37:54;;;;;;;2.53;1.27;;;15.80;99.90;;;;;;5082812;28;20200;-61
2024/04/05 03:40:21;;;;;;;3.13;1.30;;;15.90;99.90;;;;;;5082555;28;20217;-58
2024/04/05 03:42:49;;;;;;;2.50;1.10;;;15.80;99.90;;;;;;5083069;28;20619;-58
2024/04/05 03:45:15;;;;;;;3.33;1.95;;;15.80;99.90;;;;;;5085853;28;20209;-58
2024/04/05 03:47:42;;;;;;;5.27;1.50;;;15.70;99.90;;;;;;5086454;28;20291;-58
2024/04/05 03:50:08;;;;;;;2.53;1.10;;;15.70;99.90;;;;;;5107604;22;20335;-58
2024/04/05 03:52:35;;;;;;;2.70;1.27;;;15.60;99.90;;;;;;5069826;28;20288;-58
2024/04/05 03:55:00;;;;;;;4.40;1.77;;;15.60;99.90;;;;;;5063830;28;20208;-59
2024/04/05 03:57:27;;;;;;;4.97;1.40;;;15.50;99.90;;;;;;5066438;28;20208;-58
2024/04/05 03:59:54;;;;;;;4.30;1.80;;;15.40;99.90;;;;;;5066156;28;20670;-58
2024/04/05 04:02:23;;;;;;;7.40;1.90;;;15.30;99.90;;;;;;5063093;28;20202;-57
2024/04/05 04:04:49;;;;;;;2.53;1.53;;;15.30;99.90;;;;;;5062981;28;20223;-58
2024/04/05 04:07:16;;;;;;;3.60;1.47;;;15.10;99.90;;;;;;5065607;28;20201;-57
2024/04/05 04:09:41;;;;;;;5.20;1.67;;;14.90;99.90;;;;;;5066389;28;20237;-58
2024/04/05 04:12:08;;;;;;;2.73;1.40;;;14.80;99.90;;;;;;5064847;28;20267;-59
2024/04/05 04:14:34;;;;;;;6.03;1.80;;;14.60;99.90;;;;;;5063102;28;20233;-58
2024/04/05 04:17:02;;;;;;;5.83;1.97;;;14.60;99.90;;;;;;5063299;28;20197;-58
2024/04/05 04:19:28;;;;;;;2.83;1.83;;;14.50;99.90;;;;;;5066272;28;20201;-57
2024/04/05 04:21:54;;;;;;;4.30;1.70;;;14.50;99.90;;;;;;5066507;28;20270;-59
2024/04/05 04:24:20;;;;;;;6.77;2.10;;;14.50;99.90;;;;;;5062974;28;20694;-57
2024/04/05 04:26:47;;;;;;;5.23;1.70;;;14.40;99.90;;;;;;5062684;28;20205;-58
2024/04/05 04:29:12;;;;;;;3.03;1.50;;;14.30;99.90;;;;;;5064591;28;20721;-59
2024/04/05 04:31:40;;;;;;;3.10;1.43;;;14.20;99.90;;;;;;5065930;28;20221;-59
2024/04/05 04:34:07;;;;;;;5.37;2.00;;;14.10;99.90;;;;;;5064677;28;20209;-59
2024/04/05 04:36:34;;;;;;;3.03;1.60;;;14.20;99.90;;;;;;5062322;28;20209;-60
2024/04/05 04:39:00;;;;;;;2.93;1.70;;;14.30;99.90;;;;;;5062173;28;20606;-59
2024/04/05 04:41:27;;;;;;;3.33;1.70;;;14.30;99.90;;;;;;5065956;28;20220;-59
2024/04/05 04:43:54;;;;;;;4.30;1.80;;;14.40;99.90;;;;;;5065759;28;20278;-59
2024/04/05 04:46:20;;;;;;;2.97;1.73;;;14.40;99.90;;;;;;5062531;28;20662;-59
2024/04/05 04:48:46;;;;;;;5.17;2.00;;;14.40;99.90;;;;;;5061938;28;20213;-59
2024/04/05 04:51:14;;;;;;;3.73;2.03;;;14.40;99.90;;;;;;5063147;28;20229;-58
2024/04/05 04:53:40;;;;;;;4.30;2.70;;;14.30;99.90;;;;;;5065324;28;20609;-59
2024/04/05 04:56:07;;;;;;;4.57;2.00;;;14.20;99.90;;;;;;5064406;28;20204;-59
2024/04/05 04:58:34;;;;;;;3.20;2.03;;;14.20;99.90;;;;;;5061710;28;20284;-58
2024/04/05 05:01:01;;;;;;;3.20;1.80;;;14.10;99.90;;;;;;5062041;28;20218;-59
2024/04/05 05:03:27;;;;;;;3.20;1.97;;;14.00;99.90;;;;;;5065277;28;20197;-58
2024/04/05 05:05:53;;;;;;;3.27;1.90;;;13.80;99.90;;;;;;5065198;28;20278;-59
2024/04/05 05:08:20;;;;;;;3.30;2.07;;;13.80;99.90;;;;;;5061797;28;20208;-58
2024/04/05 05:10:47;;;;;;;5.90;2.27;;;13.80;99.90;;;;;;5061733;28;20228;-58
2024/04/05 05:13:13;;;;;;;3.17;1.80;;;13.90;99.90;;;;;;5063575;28;20255;-58
2024/04/05 05:15:41;;;;;;;4.87;1.97;;;13.80;99.90;;;;;;5064834;28;20201;-59
2024/04/05 05:18:07;;;;;;;8.30;2.63;;;13.80;99.90;;;;;;5063412;28;20720;-58
2024/04/05 05:20:34;;;;;;;13.77;2.40;;;13.80;99.90;;;;;;5061497;28;20217;-59
2024/04/05 05:23:00;;;;;;;3.53;2.47;;;13.80;99.90;;;;;;5061542;28;20256;-59
2024/04/05 05:25:28;;;;;;;4.37;2.27;;;13.70;99.90;;;;;;5064881;28;20613;-59
2024/04/05 05:27:54;;;;;;;4.17;2.00;;;13.60;99.90;;;;;;5064597;28;20216;-59
2024/04/05 05:30:21;;;;;;;5.27;2.40;;;13.60;99.90;;;;;;5061563;28;20228;-59
2024/04/05 05:32:48;;;;;;;6.60;1.93;;;13.60;99.90;;;;;;5061103;28;20255;-59
2024/04/05 05:35:14;;;;;;;5.20;1.90;;;13.60;99.90;;;;;;5062936;28;20663;-58
2024/04/05 05:37:41;;;;;;;4.83;1.87;;;13.70;99.90;;;;;;5064808;28;20209;-58
2024/04/05 05:40:08;;;;;;;3.17;1.77;;;13.80;99.90;;;;;;5063597;28;20311;-58
2024/04/05 05:42:35;;;;;;;4.03;1.87;;;13.80;99.90;;;;;;5061584;28;20198;-58
2024/04/05 05:45:02;;;;;;;5.63;1.97;;;13.80;99.90;;;;;;5061618;28;20260;-58
2024/04/05 05:47:28;;;;;;;5.77;2.27;;;13.80;99.90;;;;;;5064682;28;20284;-58
2024/04/05 05:49:55;;;;;;;4.10;2.00;;;13.80;99.90;;;;;;5064393;28;20236;-57
2024/04/05 05:52:21;;;;;;;3.47;2.07;;;13.90;99.90;;;;;;5061737;28;20198;-57
2024/04/05 05:54:47;;;;;;;8.20;2.33;;;14.00;99.90;;;;;;5061091;28;20252;-59
2024/04/05 05:57:13;;;;;;;7.57;2.00;;;14.00;99.90;;;;;;5062454;28;20671;-58
2024/04/05 05:59:41;;;;;;;6.13;2.70;;;14.60;99.90;;;;;;5063907;28;20262;-58
2024/04/05 06:02:07;;;;;;;5.07;2.60;;;15.50;99.90;;;;;;5062202;28;20292;-58
2024/04/05 06:04:33;;;;;;;4.60;2.47;;;16.10;99.90;;;;;;5060324;28;20205;-58
2024/04/05 06:06:59;;;;;;;9.13;2.78;;;16.40;99.90;;;;;;5060465;28;20206;-57
2024/04/05 06:09:26;;;;;;;3.95;2.03;;;16.90;99.90;;;;;;5063785;28;20246;-59
2024/04/05 06:11:54;;;;;;;4.40;1.77;;;17.60;99.90;;;;;;5063957;28;20224;-59
2024/04/05 06:14:21;;;;;;;6.20;2.20;;;18.40;99.90;;;;;;5061192;28;20251;-57
2024/04/05 06:16:48;;;;;;;10.38;2.40;;;18.60;99.90;;;;;;5060470;28;20228;-58
2024/04/05 06:19:15;;;;;;;3.30;2.20;;;19.20;99.90;;;;;;5061577;28;20663;-59
2024/04/05 06:21:40;;;;;;;3.85;2.20;;;19.50;99.90;;;;;;5063765;28;20631;-60
2024/04/05 06:24:08;;;;;;;5.32;2.22;;;19.80;99.90;;;;;;5062947;28;20207;-59
2024/04/05 06:26:35;;;;;;;4.05;1.48;;;20.00;99.90;;;;;;5060358;28;20252;-60
2024/04/05 06:29:02;;;;;;;2.60;1.15;;;20.00;99.90;;;;;;5059872;28;20251;-58
2024/04/05 06:31:28;;;;;;;6.13;1.95;;;20.30;99.90;;;;;;5063313;28;20224;-58
2024/04/05 06:33:56;;;;;;;3.42;1.55;;;20.90;99.90;;;;;;5063868;28;20204;-58
2024/04/05 06:36:22;;;;;;;2.20;1.50;;;21.80;99.90;;;;;;5061377;28;20201;-61
2024/04/05 06:38:48;;;;;;;2.70;1.60;;;22.50;99.90;;;;;;5060154;28;20581;-58
2024/04/05 06:41:15;;;;;;;3.00;1.65;;;23.10;99.90;;;;;;5061836;28;20279;-56
2024/04/05 06:43:42;;;;;;;4.00;1.52;;;23.70;99.90;;;;;;5063378;28;20250;-56
2024/04/05 06:46:08;;;;;;;3.45;1.15;;;24.70;99.90;;;;;;5062263;28;20670;-58
2024/04/05 06:48:35;;;;;;;1.52;1.15;;;25.60;99.90;;;;;;5059893;28;20209;-56
2024/04/05 06:51:11;;;;;;;4.93;1.35;;;25.50;99.90;;;;;;5059696;28;20236;-55
2024/04/05 06:53:38;;;;;;;3.67;1.20;;;24.80;99.90;;;;;;5064683;28;20200;-57
2024/04/05 06:56:06;;;;;;;7.93;1.20;;;23.90;99.90;;;;;;5062784;28;20287;-58
2024/04/05 06:58:33;;;;;;;4.18;1.35;;;22.90;99.90;;;;;;5059424;28;20622;-57
2024/04/05 07:01:01;;;;;;;4.10;1.20;;;22.10;99.90;;;;;;5059979;28;20217;-56
2024/04/05 07:03:28;;;;;;;2.97;1.45;;;21.60;99.90;;;;;;5063591;28;20197;-57
2024/04/05 07:05:59;;;;;;;5.15;1.50;;;21.50;99.90;;;;;;5063505;28;20216;-56
2024/04/05 07:08:28;;;;;;;3.20;1.50;;;21.80;99.90;;;;;;5060031;28;20251;-57
2024/04/05 07:10:53;;;;;;;2.33;1.35;;;22.20;99.90;;;;;;5059777;28;20229;-56
2024/04/05 07:13:20;;;;;;;29.17;18.00;;;22.60;99.90;;;;;;5062217;28;20691;-57
2024/04/05 07:15:46;;;;;;;11.15;6.07;;;23.00;99.90;;;;;;5067361;28;20205;-56
2024/04/05 07:18:13;;;;;;;3.47;1.23;;;23.50;99.90;;;;;;5065543;28;20618;-55
2024/04/05 07:20:39;;;;;;;3.10;1.40;;;23.90;99.90;;;;;;5063759;28;20610;-58
2024/04/05 07:23:06;;;;;;;2.92;1.30;;;24.30;99.90;;;;;;5063775;28;20216;-58
2024/04/05 07:25:33;;;;;;;4.05;1.20;;;24.80;99.90;;;;;;5067017;28;20629;-56
2024/04/05 07:28:00;;;;;;;2.42;1.25;;;25.20;99.90;;;;;;5066710;28;20236;-58
2024/04/05 07:30:27;;;;;;;3.47;1.65;;;25.40;99.90;;;;;;5063622;28;20221;-59
2024/04/05 07:32:54;;;;;;;2.53;1.13;;;25.30;99.90;;;;;;5064208;28;20213;-57
2024/04/05 07:35:22;;;;;;;3.42;1.50;;;25.30;99.90;;;;;;5065936;28;20296;-56
2024/04/05 07:37:49;;;;;;;3.03;1.25;;;25.50;99.90;;;;;;5066637;28;20201;-58
2024/04/05 07:40:20;;;;;;;3.88;1.83;;;25.90;99.90;;;;;;5064858;28;20232;-57
2024/04/05 07:42:50;;;;;;;3.00;1.00;;;26.20;99.90;;;;;;5063252;28;20745;-56
2024/04/05 07:45:16;;;;;;;5.63;1.35;;;26.50;99.10;;;;;;5065050;28;20667;-58
2024/04/05 07:47:42;;;;;;;5.63;1.10;;;26.90;98.60;;;;;;5066358;28;20283;-56
2024/04/05 07:50:08;;;;;;;5.35;1.73;;;26.90;97.60;;;;;;5065424;28;20235;-56
2024/04/05 07:52:35;;;;;;;3.92;1.10;;;26.70;97.20;;;;;;5062938;28;20308;-57
2024/04/05 07:55:02;;;;;;;4.57;1.25;;;26.40;97.10;;;;;;5062951;28;20214;-57
2024/04/05 07:57:29;;;;;;;4.65;1.83;;;26.30;97.40;;;;;;5066411;28;20197;-57
2024/04/05 07:59:56;;;;;;;2.60;1.02;;;26.30;97.70;;;;;;5066186;28;20288;-57
2024/04/05 08:02:28;;;;;;;1.85;1.10;;;26.60;96.90;;;;;;5063884;28;20224;-57
2024/04/05 08:04:55;;;;;;;1.90;1.20;;;26.90;97.10;;;;;;5062686;28;20647;-57
2024/04/05 08:07:23;;;;;;;1.55;1.00;;;26.90;96.30;;;;;;5064947;28;20306;-59
2024/04/05 08:09:51;;;;;;;3.25;1.65;;;26.60;96.60;;;;;;5065863;28;20627;-60
2024/04/05 08:12:17;;;;;;;1.23;1.02;;;26.50;96.60;;;;;;5064025;28;20220;-59
2024/04/05 08:14:43;;;;;;;2.67;1.35;;;26.30;96.00;;;;;;5065723;28;20209;-60
2024/04/05 08:17:11;;;;;;;3.47;1.17;;;26.10;96.30;;;;;;5065083;28;20235;-63
2024/04/05 08:19:37;;;;;;;3.78;1.40;;;25.70;96.60;;;;;;5062394;28;20201;-66
2024/04/05 08:22:04;;;;;;;2.03;0.90;;;25.20;97.30;;;;;;5062093;28;20218;-62
2024/04/05 08:24:30;;;;;;;5.15;1.30;;;24.70;97.50;;;;;;5066227;28;20204;-58
2024/04/05 08:26:57;;;;;;;3.67;1.15;;;24.20;98.00;;;;;;5064883;28;20197;-60
2024/04/05 08:29:24;;;;;;;1.77;1.15;;;23.80;98.60;;;;;;5063327;28;20205;-59
2024/04/05 08:31:52;;;;;;;2.60;1.50;;;23.40;98.90;;;;;;5062188;28;20237;-59
2024/04/05 08:34:19;;;;;;;2.35;1.10;;;23.20;98.80;;;;;;5063823;28;20217;-59
2024/04/05 08:36:48;;;;;;;3.13;1.20;;;23.00;99.60;;;;;;5066066;28;20292;-61
2024/04/05 08:39:14;;;;;;;3.40;1.13;;;22.80;99.10;;;;;;5064271;28;20678;-63
2024/04/05 08:41:45;;;;;;;2.03;0.90;;;22.50;99.40;;;;;;5062241;28;20304;-66
2024/04/05 08:44:12;;;;;;;3.95;1.30;;;22.30;99.80;;;;;;5062832;28;20206;-64
2024/04/05 08:46:39;;;;;;;1.80;1.10;;;22.20;99.90;;;;;;5065744;28;20201;-59
2024/04/05 08:49:05;;;;;;;4.97;2.25;;;22.10;99.90;;;;;;5064973;28;20201;-59
2024/04/05 08:51:34;;;;;;;5.78;1.75;;;22.00;99.90;;;;;;5061671;28;20265;-59
2024/04/05 08:54:00;;;;;;;6.00;1.70;;;21.90;99.90;;;;;;5061696;28;20679;-60
2024/04/05 08:56:27;;;;;;;5.15;1.98;;;22.00;99.90;;;;;;5064723;28;20212;-59
2024/04/05 08:58:53;;;;;;;3.00;1.40;;;22.30;99.90;;;;;;5064856;28;20296;-63
2024/04/05 09:01:20;;;;;;;5.28;1.25;;;22.50;99.90;;;;;;5063117;28;20614;-56
2024/04/05 09:03:48;;;;;;;2.42;0.93;;;22.60;99.90;;;;;;5061503;28;20202;-56
2024/04/05 09:06:15;;;;;;;4.07;1.50;;;22.70;99.90;;;;;;5063042;28;20230;-55
2024/04/05 09:08:46;;;;;;;4.07;1.60;;;22.70;99.90;;;;;;5065215;28;20213;-55
2024/04/05 09:11:20;;;;;;;2.80;1.20;;;22.70;99.90;;;;;;5064198;28;20236;-57
2024/04/05 09:13:55;;;;;;;3.22;1.40;;;22.70;99.90;;;;;;5067288;28;20215;-56
2024/04/05 09:16:24;;;;;;;3.40;1.40;;;22.50;99.80;;;;;;5062879;28;20196;-58
2024/04/05 09:18:50;;;;;;;2.72;0.75;;;22.40;99.90;;;;;;5061314;28;20652;-57
2024/04/05 09:21:17;;;;;;;2.78;1.60;;;22.40;99.50;;;;;;5062680;28;20237;-55
2024/04/05 09:23:45;;;;;;;3.47;0.95;;;22.40;99.90;;;;;;5064807;28;20312;-56
2024/04/05 09:26:18;;;;;;;3.40;1.20;;;22.30;99.10;;;;;;5063923;28;20201;-55
2024/04/05 09:28:44;;;;;;;2.63;1.50;;;22.40;99.30;;;;;;5061122;28;20209;-54
2024/04/05 09:31:17;;;;;;;5.28;1.88;;;22.40;99.20;;;;;;5061927;28;20299;-54
2024/04/05 09:33:43;;;;;;;7.00;1.42;;;22.60;99.30;;;;;;5064829;28;20212;-54
2024/04/05 09:36:14;;;;;;;3.28;1.20;;;22.80;99.40;;;;;;5063812;28;20209;-54
2024/04/05 09:38:40;;;;;;;3.38;1.42;;;22.90;98.30;;;;;;5060951;28;20238;-54
2024/04/05 09:41:13;;;;;;;2.22;1.00;;;23.10;97.90;;;;;;5060827;28;20300;-55
2024/04/05 09:43:40;;;;;;;2.55;1.40;;;23.20;97.60;;;;;;5064692;28;20205;-54
2024/04/05 09:46:11;;;;;;;5.40;1.75;;;23.20;98.00;;;;;;5064445;28;20201;-55
2024/04/05 09:48:37;;;;;;;3.97;1.35;;;23.40;98.10;;;;;;5060699;28;20202;-54
2024/04/05 09:51:14;;;;;;;2.67;1.00;;;23.50;97.60;;;;;;5060933;28;20336;-54
2024/04/05 09:53:45;;;;;;;2.70;1.40;;;23.60;97.40;;;;;;5065339;28;20205;-56
2024/04/05 09:56:18;;;;;;;4.57;3.08;;;23.70;97.30;;;;;;5063440;28;20212;-57
2024/04/05 09:58:46;;;;;;;3.28;1.10;;;23.90;97.40;;;;;;5060690;28;20210;-56
2024/04/05 10:01:15;;;;;;;3.08;1.00;;;24.00;96.90;;;;;;5061269;28;20304;-56
2024/04/05 10:03:42;;;;;;;3.70;1.10;;;24.00;96.90;;;;;;5067757;28;20205;-56
2024/04/05 10:06:14;;;;;;;3.33;1.40;;;24.10;96.80;;;;;;5060384;28;20216;-57
2024/04/05 10:08:40;;;;;;;2.05;1.30;;;24.20;96.50;;;;;;5064231;28;20212;-55
2024/04/05 10:11:15;;;;;;;7.97;1.45;;;24.30;96.20;;;;;;5063569;28;20232;-56
2024/04/05 10:13:41;;;;;;;5.22;1.67;;;24.20;95.70;;;;;;5065036;28;20254;-55
2024/04/05 10:16:09;;;;;;;8.15;2.22;;;24.10;95.90;;;;;;5063891;28;20204;-55
2024/04/05 10:18:38;;;;;;;5.03;1.88;;;24.10;96.10;;;;;;5063954;28;20295;-56
2024/04/05 10:21:08;;;;;;;2.45;1.10;;;24.20;96.60;;;;;;5063805;28;20221;-56
2024/04/05 10:23:34;;;;;;;3.20;1.38;;;24.30;96.00;;;;;;5064147;28;20200;-56
2024/04/05 10:26:01;;;;;;;3.13;1.10;;;24.30;94.60;;;;;;5063795;28;20224;-56
2024/04/05 10:28:29;;;;;;;2.55;1.05;;;24.40;94.50;;;;;;5060867;28;20205;-55
2024/04/05 10:30:56;;;;;;;2.25;1.20;;;24.40;94.00;;;;;;5060240;28;20228;-56
2024/04/05 10:33:22;;;;;;;3.92;1.90;;;24.30;94.40;;;;;;5062015;28;20296;-55
2024/04/05 10:35:49;;;;;;;5.90;3.13;;;24.40;94.20;;;;;;5063926;28;20204;-55
2024/04/05 10:38:16;;;;;;;3.17;0.80;;;24.50;94.00;;;;;;5062445;28;20209;-56
2024/04/05 10:40:43;;;;;;;2.97;1.15;;;24.60;93.80;;;;;;5060084;28;20217;-56
2024/04/05 10:43:09;;;;;;;2.25;1.13;;;24.80;93.10;;;;;;5060212;28;20228;-57
2024/04/05 10:45:38;;;;;;;3.85;1.23;;;25.00;92.90;;;;;;5063454;28;20689;-56
2024/04/05 10:48:04;;;;;;;3.90;1.13;;;25.30;91.80;;;;;;5063085;28;20209;-57
2024/04/05 10:50:35;;;;;;;3.85;0.90;;;25.60;91.60;;;;;;5060073;28;20228;-56
2024/04/05 10:53:01;;;;;;;2.17;1.23;;;26.00;91.10;;;;;;5060018;28;20341;-55
2024/04/05 10:55:27;;;;;;;2.13;0.63;;;26.30;90.20;;;;;;5062456;28;20214;-56
2024/04/05 10:57:53;;;;;;;4.13;1.70;;;26.40;89.50;;;;;;5063818;28;20212;-56
2024/04/05 11:00:20;;;;;;;3.50;1.73;;;26.60;89.90;;;;;;5061416;28;20217;-56
2024/04/05 11:02:47;;;;;;;3.42;1.60;;;26.90;88.80;;;;;;5060036;28;20263;-56
2024/04/05 11:05:16;;;;;;;1.60;0.88;;;27.20;87.30;;;;;;5060174;28;20209;-57
2024/04/05 11:07:42;;;;;;;3.70;1.00;;;27.30;86.60;;;;;;5063019;28;20266;-56
2024/04/05 11:10:16;;;;;;;3.65;1.08;;;27.40;87.10;;;;;;5063089;28;20231;-57
2024/04/05 11:12:42;;;;;;;2.63;1.08;;;27.50;85.20;;;;;;5064131;28;20303;-55
2024/04/05 11:15:09;;;;;;;2.78;0.95;;;27.30;84.90;;;;;;5063537;28;20292;-56
2024/04/05 11:17:35;;;;;;;2.75;1.15;;;27.30;83.90;;;;;;5063321;28;20231;-56
2024/04/05 11:20:11;;;;;;;1.40;0.93;;;27.20;83.90;;;;;;5063371;28;20205;-56
2024/04/05 11:22:37;;;;;;;1.48;0.63;;;27.30;84.00;;;;;;5059746;28;20374;-55
2024/04/05 11:25:05;;;;;;;1.15;0.70;;;27.40;83.10;;;;;;5059725;28;20404;-55
2024/04/05 11:27:31;;;;;;;2.22;0.90;;;27.40;82.40;;;;;;5062834;28;20205;-56
2024/04/05 11:29:58;;;;;;;1.98;0.73;;;27.50;82.60;;;;;;5063323;28;20278;-56
2024/04/05 11:32:28;;;;;;;1.98;1.10;;;27.50;81.40;;;;;;5054709;28;20229;-55
2024/04/05 11:34:56;;;;;;;3.22;1.20;;;27.60;80.60;;;;;;5063073;28;20201;-56
2024/04/05 11:37:23;;;;;;;1.48;0.75;;;27.80;80.70;;;;;;5061554;28;20212;-55
2024/04/05 11:39:50;;;;;;;2.15;0.57;;;28.10;80.10;;;;;;5059241;28;20228;-55
2024/04/05 11:42:15;;;;;;;1.45;0.90;;;28.20;79.20;;;;;;5059687;28;20209;-56
2024/04/05 11:44:42;;;;;;;1.67;0.93;;;28.30;78.20;;;;;;5059743;28;20686;-55
2024/04/05 11:47:08;;;;;;;2.20;0.88;;;28.30;77.80;;;;;;5059773;28;20210;-55
2024/04/05 11:49:35;;;;;;;1.70;0.82;;;28.20;77.90;;;;;;5059267;28;20198;-57
2024/04/05 11:52:00;;;;;;;1.55;1.00;;;28.30;77.00;;;;;;5059111;28;20294;-56
2024/04/05 11:54:28;;;;;;;2.22;0.63;;;28.40;77.10;;;;;;5061251;28;20202;-55
2024/04/05 11:56:54;;;;;;;1.38;0.73;;;28.40;75.00;;;;;;5062957;28;20209;-55
2024/04/05 11:59:21;;;;;;;2.88;1.48;;;28.50;75.10;;;;;;5062675;28;20206;-56
2024/04/05 12:01:46;;;;;;;2.05;1.30;;;28.50;73.60;;;;;;5066061;28;20224;-55
2024/04/05 12:04:13;;;;;;;3.33;1.15;;;28.50;74.40;;;;;;5065970;28;20204;-54
2024/04/05 12:06:39;;;;;;;1.15;0.75;;;28.50;74.60;;;;;;5063053;28;20206;-55
2024/04/05 12:09:08;;;;;;;3.58;1.08;;;28.50;72.50;;;;;;5062801;28;20256;-56
2024/04/05 12:11:35;;;;;;;1.92;0.95;;;28.40;72.70;;;;;;5066883;28;20332;-54
2024/04/05 12:14:01;;;;;;;2.30;1.00;;;28.30;73.40;;;;;;5066281;28;20201;-54
2024/04/05 12:16:27;;;;;;;1.58;0.90;;;28.20;73.30;;;;;;5063994;28;20201;-54
2024/04/05 12:18:54;;;;;;;3.92;0.80;;;28.00;73.20;;;;;;5062386;28;20202;-54
2024/04/05 12:21:19;;;;;;;1.05;0.80;;;27.80;72.90;;;;;;5063673;28;20279;-54
2024/04/05 12:23:46;;;;;;;2.35;0.60;;;27.40;73.80;;;;;;5065855;28;20197;-54
2024/04/05 12:26:12;;;;;;;1.67;0.70;;;27.00;74.60;;;;;;5066042;28;20209;-54
2024/04/05 12:28:40;;;;;;;2.38;1.30;;;26.70;75.60;;;;;;5062429;28;20232;-55
2024/04/05 12:31:07;;;;;;;2.55;0.98;;;26.60;76.30;;;;;;5062253;28;20711;-54
2024/04/05 12:33:33;;;;;;;2.53;0.85;;;26.50;76.50;;;;;;5065527;28;20726;-56
2024/04/05 12:36:03;;;;;;;2.35;1.10;;;26.30;77.00;;;;;;5065655;28;20692;-55
2024/04/05 12:38:33;;;;;;;1.45;0.93;;;26.20;77.40;;;;;;5062984;28;20205;-54
2024/04/05 12:40:59;;;;;;;2.83;1.00;;;26.20;78.20;;;;;;5062565;28;20222;-55
2024/04/05 12:43:25;;;;;;;2.65;0.85;;;26.10;78.00;;;;;;5063852;28;20201;-54